createdAt,value
2018-10-06T00:02:25.473Z,7.07
2018-10-06T00:04:57.707Z,6.13
2018-10-06T00:07:28.827Z,6.60
2018-10-06T00:10:01.433Z,6.33
2018-10-06T00:12:32.715Z,6.60
2018-10-06T00:15:05.153Z,6.53
2018-10-06T00:17:36.219Z,6.37
2018-10-06T00:20:08.639Z,6.53
2018-10-06T00:22:39.862Z,6.73
2018-10-06T00:25:11.227Z,6.67
2018-10-06T00:27:42.985Z,6.83
2018-10-06T00:30:14.350Z,6.57
2018-10-06T00:32:45.772Z,7.00
2018-10-06T00:35:16.935Z,6.00
2018-10-06T00:37:47.937Z,6.57
2018-10-06T00:40:19.873Z,6.80
2018-10-06T00:42:51.594Z,7.47
2018-10-06T00:45:22.532Z,6.53
2018-10-06T00:47:54.108Z,7.23
2018-10-06T00:50:26.063Z,7.27
2018-10-06T00:52:57.085Z,6.87
2018-10-06T00:55:27.929Z,6.90
2018-10-06T00:57:58.837Z,6.67
2018-10-06T01:00:29.797Z,7.07
2018-10-06T01:03:01.543Z,6.83
2018-10-06T01:05:32.544Z,7.23
2018-10-06T01:08:03.710Z,7.03
2018-10-06T01:10:35.047Z,6.90
2018-10-06T01:13:06.466Z,6.83
2018-10-06T01:15:37.564Z,6.83
2018-10-06T01:18:08.949Z,7.47
2018-10-06T01:20:40.492Z,7.90
2018-10-06T01:23:11.823Z,7.07
2018-10-06T01:25:42.905Z,6.90
2018-10-06T01:28:15.573Z,7.80
2018-10-06T01:30:46.872Z,7.03
2018-10-06T01:33:17.949Z,6.73
2018-10-06T01:35:48.993Z,6.90
2018-10-06T01:38:19.942Z,7.23
2018-10-06T01:40:51.119Z,6.83
2018-10-06T01:43:22.284Z,7.90
2018-10-06T01:45:53.709Z,7.50
2018-10-06T01:48:25.004Z,7.63
2018-10-06T01:50:56.329Z,7.23
2018-10-06T01:53:27.367Z,6.87
2018-10-06T01:55:58.417Z,7.57
2018-10-06T01:58:29.635Z,7.60
2018-10-06T02:01:01.045Z,7.57
2018-10-06T02:03:32.819Z,7.33
2018-10-06T02:06:03.936Z,7.67
2018-10-06T02:08:35.243Z,7.97
2018-10-06T02:11:06.696Z,7.53
2018-10-06T02:13:38.216Z,7.47
2018-10-06T02:16:10.008Z,8.10
2018-10-06T02:18:41.263Z,7.27
2018-10-06T02:21:12.712Z,7.47
2018-10-06T02:23:44.615Z,8.20
2018-10-06T02:26:16.024Z,7.93
2018-10-06T02:28:47.537Z,8.37
2018-10-06T02:31:18.661Z,8.10
2018-10-06T02:33:49.721Z,7.77
2018-10-06T02:36:20.773Z,7.80
2018-10-06T02:38:51.844Z,7.70
2018-10-06T02:41:22.809Z,8.37
2018-10-06T02:43:53.984Z,7.93
2018-10-06T02:46:25.252Z,8.40
2018-10-06T02:48:56.761Z,8.45
2018-10-06T02:51:27.543Z,7.93
2018-10-06T02:53:58.414Z,8.37
2018-10-06T02:56:29.424Z,7.70
2018-10-06T02:59:00.455Z,8.67
2018-10-06T03:01:31.544Z,8.20
2018-10-06T03:04:02.869Z,7.80
2018-10-06T03:06:33.859Z,7.77
2018-10-06T03:09:05.859Z,8.60
2018-10-06T03:11:37.326Z,8.17
2018-10-06T03:14:08.534Z,8.77
2018-10-06T03:16:39.733Z,8.40
2018-10-06T03:19:10.707Z,8.23
2018-10-06T03:21:41.733Z,8.10
2018-10-06T03:24:13.049Z,8.60
2018-10-06T03:26:44.477Z,8.37
2018-10-06T03:29:15.775Z,8.43
2018-10-06T03:31:47.204Z,8.60
2018-10-06T03:34:18.606Z,8.97
2018-10-06T03:36:50.039Z,8.77
2018-10-06T03:39:21.135Z,8.53
2018-10-06T03:41:52.348Z,8.50
2018-10-06T03:44:23.421Z,8.80
2018-10-06T03:46:54.476Z,8.57
2018-10-06T03:49:25.873Z,8.57
2018-10-06T03:51:57.173Z,8.43
2018-10-06T03:54:28.396Z,8.07
2018-10-06T03:56:59.722Z,8.77
2018-10-06T03:59:32.125Z,8.50
2018-10-06T04:02:04.273Z,8.20
2018-10-06T04:04:35.593Z,8.23
2018-10-06T04:07:06.982Z,8.47
2018-10-06T04:09:38.443Z,8.97
2018-10-06T04:12:10.052Z,8.80
2018-10-06T04:14:41.992Z,9.13
2018-10-06T04:17:13.093Z,9.73
2018-10-06T04:19:44.488Z,9.07
2018-10-06T04:22:16.285Z,8.87
2018-10-06T04:24:48.054Z,9.13
2018-10-06T04:27:19.372Z,9.10
2018-10-06T04:29:51.063Z,8.57
2018-10-06T04:32:22.693Z,9.47
2018-10-06T04:34:54.092Z,10.00
2018-10-06T04:37:25.842Z,9.93
2018-10-06T04:39:58.448Z,9.97
2018-10-06T04:42:30.970Z,10.33
2018-10-06T04:45:02.739Z,9.73
2018-10-06T04:47:34.723Z,9.60
2018-10-06T04:50:06.269Z,10.47
2018-10-06T04:52:37.817Z,9.67
2018-10-06T04:55:09.865Z,9.93
2018-10-06T04:57:41.405Z,10.17
2018-10-06T05:00:13.976Z,9.47
2018-10-06T05:02:46.379Z,9.53
2018-10-06T05:05:18.007Z,9.77
2018-10-06T05:07:49.713Z,9.83
2018-10-06T05:10:22.083Z,10.13
2018-10-06T05:12:53.745Z,9.47
2018-10-06T05:15:25.082Z,9.37
2018-10-06T05:17:56.211Z,8.97
2018-10-06T05:20:27.847Z,9.27
2018-10-06T05:22:59.309Z,8.90
2018-10-06T05:25:30.792Z,9.37
2018-10-06T05:28:03.364Z,8.47
2018-10-06T05:30:34.797Z,8.47
2018-10-06T05:33:06.393Z,8.43
2018-10-06T05:35:37.793Z,9.30
2018-10-06T05:38:09.373Z,9.10
2018-10-06T05:40:40.909Z,9.07
2018-10-06T05:43:12.517Z,8.57
2018-10-06T05:45:44.761Z,8.97
2018-10-06T05:48:16.567Z,8.10
2018-10-06T05:50:48.645Z,7.67
2018-10-06T05:53:20.116Z,8.57
2018-10-06T05:55:51.336Z,7.60
2018-10-06T05:58:22.783Z,8.33
2018-10-06T06:00:54.219Z,7.93
2018-10-06T06:03:25.923Z,8.53
2018-10-06T06:05:57.770Z,9.00
2018-10-06T06:08:29.011Z,8.93
2018-10-06T06:11:00.079Z,9.00
2018-10-06T06:13:31.425Z,8.30
2018-10-06T06:16:02.206Z,8.23
2018-10-06T06:18:32.889Z,7.53
2018-10-06T06:21:03.876Z,7.70
2018-10-06T06:23:34.728Z,7.80
2018-10-06T06:26:05.384Z,7.90
2018-10-06T06:28:35.758Z,8.07
2018-10-06T06:31:06.259Z,8.47
2018-10-06T06:33:36.678Z,8.97
2018-10-06T06:36:07.434Z,9.83
2018-10-06T06:38:38.007Z,8.97
2018-10-06T06:41:10.056Z,9.63
2018-10-06T06:43:40.515Z,9.27
2018-10-06T06:46:11.518Z,9.27
2018-10-06T06:48:42.753Z,8.60
2018-10-06T06:51:13.723Z,9.73
2018-10-06T06:53:44.474Z,8.67
2018-10-06T06:56:15.183Z,9.53
2018-10-06T06:58:45.970Z,9.37
2018-10-06T07:01:16.820Z,8.83
2018-10-06T07:03:47.741Z,8.63
2018-10-06T07:06:18.485Z,9.73
2018-10-06T07:08:49.235Z,8.50
2018-10-06T07:11:20.133Z,8.33
2018-10-06T07:13:51.008Z,8.97
2018-10-06T07:16:21.766Z,8.53
2018-10-06T07:18:52.618Z,8.45
2018-10-06T07:21:23.437Z,9.17
2018-10-06T07:23:54.073Z,8.03
2018-10-06T07:26:24.709Z,7.17
2018-10-06T07:28:55.552Z,8.33
2018-10-06T07:31:26.177Z,7.73
2018-10-06T07:33:56.775Z,7.63
2018-10-06T07:36:27.292Z,7.80
2018-10-06T07:38:59.990Z,8.03
2018-10-06T07:41:30.493Z,7.43
2018-10-06T07:44:00.886Z,7.75
2018-10-06T07:46:31.442Z,7.70
2018-10-06T07:49:01.910Z,7.60
2018-10-06T07:51:32.353Z,7.53
2018-10-06T07:54:02.848Z,7.87
2018-10-06T07:56:33.297Z,7.57
2018-10-06T07:59:03.749Z,7.87
2018-10-06T08:01:34.214Z,7.97
2018-10-06T08:04:04.650Z,8.23
2018-10-06T08:06:35.415Z,7.50
2018-10-06T08:09:07.736Z,7.93
2018-10-06T08:11:38.386Z,8.47
2018-10-06T08:14:08.966Z,8.00
2018-10-06T08:16:39.346Z,8.17
2018-10-06T08:19:09.753Z,8.63
2018-10-06T08:21:40.230Z,7.97
2018-10-06T08:24:10.700Z,7.90
2018-10-06T08:26:41.703Z,7.83
2018-10-06T08:29:12.335Z,7.17
2018-10-06T08:31:42.907Z,7.50
2018-10-06T08:34:13.267Z,7.70
2018-10-06T08:36:43.731Z,7.60
2018-10-06T08:39:14.088Z,7.97
2018-10-06T08:41:44.699Z,7.10
2018-10-06T08:44:15.153Z,7.30
2018-10-06T08:46:46.467Z,6.33
2018-10-06T08:49:17.527Z,6.77
2018-10-06T08:51:48.379Z,6.13
2018-10-06T08:54:19.151Z,6.37
2018-10-06T08:56:50.641Z,6.27
2018-10-06T08:59:21.003Z,6.30
2018-10-06T09:01:51.540Z,5.90
2018-10-06T09:04:22.072Z,5.67
2018-10-06T09:06:52.470Z,6.13
2018-10-06T09:09:22.959Z,6.20
2018-10-06T09:11:53.531Z,5.70
2018-10-06T09:14:23.890Z,6.50
2018-10-06T09:16:54.310Z,5.90
2018-10-06T09:19:24.662Z,5.63
2018-10-06T09:21:55.192Z,5.37
2018-10-06T09:24:25.569Z,4.67
2018-10-06T09:26:56.201Z,4.30
2018-10-06T09:29:26.603Z,3.63
2018-10-06T09:31:57.099Z,3.73
2018-10-06T09:34:27.678Z,3.90
2018-10-06T09:36:58.325Z,4.00
2018-10-06T09:39:29.265Z,4.10
2018-10-06T09:41:59.807Z,3.90
2018-10-06T09:44:31.568Z,4.00
2018-10-06T09:47:02.077Z,4.13
2018-10-06T09:49:32.764Z,4.30
2018-10-06T09:52:03.693Z,4.37
2018-10-06T09:54:34.093Z,3.83
2018-10-06T09:57:04.580Z,4.10
2018-10-06T09:59:35.051Z,4.30
2018-10-06T10:04:12.616Z,4.03
2018-10-06T10:06:43.214Z,4.60
2018-10-06T10:09:15.152Z,5.07
2018-10-06T10:11:45.676Z,4.30
2018-10-06T10:14:16.232Z,4.95
2018-10-06T10:16:46.650Z,4.70
2018-10-06T10:19:17.168Z,5.07
2018-10-06T10:21:47.698Z,4.33
2018-10-06T10:24:18.172Z,4.70
2018-10-06T10:26:49.912Z,5.20
2018-10-06T10:29:20.352Z,4.93
2018-10-06T10:31:50.891Z,4.23
2018-10-06T10:34:21.499Z,5.03
2018-10-06T10:36:52.017Z,5.15
2018-10-06T10:39:23.022Z,4.87
2018-10-06T10:41:53.494Z,5.22
2018-10-06T10:44:24.034Z,4.80
2018-10-06T10:46:54.961Z,4.80
2018-10-06T10:49:27.210Z,5.10
2018-10-06T10:52:01.739Z,4.97
2018-10-06T10:54:32.325Z,4.78
2018-10-06T10:57:16.849Z,5.05
2018-10-06T11:00:18.307Z,5.10
2018-10-06T11:02:48.958Z,4.23
2018-10-06T11:05:26.923Z,4.40
2018-10-06T11:10:58.988Z,3.90
2018-10-06T11:13:29.957Z,3.10
2018-10-06T11:16:00.835Z,3.22
2018-10-06T11:18:31.698Z,3.08
2018-10-06T11:21:02.489Z,2.72
2018-10-06T11:23:52.086Z,2.65
2018-10-06T11:53:22.450Z,3.02
2018-10-06T11:55:53.283Z,2.43
2018-10-06T11:58:23.943Z,2.50
2018-10-06T12:00:54.733Z,2.72
2018-10-06T12:03:25.451Z,2.75
2018-10-06T12:05:56.427Z,2.50
2018-10-06T12:08:30.334Z,2.70
2018-10-06T12:11:01.061Z,2.52
2018-10-06T12:13:31.961Z,2.90
2018-10-06T12:16:04.904Z,4.03
2018-10-06T12:18:44.114Z,2.52
2018-10-06T12:21:14.844Z,2.77
2018-10-06T12:23:46.729Z,2.75
2018-10-06T12:26:17.346Z,2.27
2018-10-06T12:28:48.271Z,2.72
2018-10-06T12:31:18.900Z,2.37
2018-10-06T12:33:49.636Z,2.60
2018-10-06T12:36:20.299Z,2.40
2018-10-06T12:38:51.074Z,2.65
2018-10-06T12:41:21.853Z,2.35
2018-10-06T12:43:52.595Z,2.43
2018-10-06T12:46:23.203Z,2.30
2018-10-06T12:48:53.871Z,1.87
2018-10-06T12:51:24.400Z,2.70
2018-10-06T12:53:55.373Z,2.07
2018-10-06T12:56:25.964Z,2.27
2018-10-06T12:58:56.652Z,2.30
2018-10-06T13:01:27.422Z,2.12
2018-10-06T13:03:58.105Z,2.67
2018-10-06T13:06:28.855Z,2.10
2018-10-06T13:08:59.667Z,2.20
2018-10-06T13:11:31.933Z,2.30
2018-10-06T13:14:03.155Z,2.40
2018-10-06T13:16:57.940Z,2.47
2018-10-06T13:19:29.408Z,2.37
2018-10-06T13:22:01.063Z,2.40
2018-10-06T13:24:31.707Z,2.15
2018-10-06T13:27:02.325Z,2.40
2018-10-06T13:29:33.445Z,2.70
2018-10-06T13:32:04.492Z,2.50
2018-10-06T13:34:34.941Z,2.42
2018-10-06T13:37:05.729Z,2.65
2018-10-06T13:39:42.390Z,2.40
2018-10-06T13:42:16.263Z,2.30
2018-10-06T13:44:47.061Z,2.20
2018-10-06T13:47:17.645Z,2.22
2018-10-06T13:49:48.130Z,2.10
2018-10-06T13:52:18.593Z,2.80
2018-10-06T13:54:49.169Z,2.22
2018-10-06T13:57:19.712Z,2.40
2018-10-06T13:59:50.209Z,2.60
2018-10-06T14:02:20.672Z,2.52
2018-10-06T14:04:51.273Z,2.27
2018-10-06T14:07:21.998Z,2.62
2018-10-06T14:09:52.511Z,2.40
2018-10-06T14:12:23.045Z,2.77
2018-10-06T14:14:53.610Z,2.50
2018-10-06T14:17:24.134Z,2.80
2018-10-06T14:19:54.643Z,2.62
2018-10-06T14:22:25.147Z,2.47
2018-10-06T14:24:55.770Z,2.40
2018-10-06T14:27:26.248Z,2.80
2018-10-06T14:29:56.771Z,2.50
2018-10-06T14:32:27.358Z,2.52
2018-10-06T14:34:57.861Z,2.37
2018-10-06T14:37:28.443Z,2.70
2018-10-06T14:39:58.944Z,2.55
2018-10-06T14:42:29.425Z,2.45
2018-10-06T14:44:59.943Z,2.60
2018-10-06T14:47:30.412Z,2.83
2018-10-06T14:50:00.973Z,2.70
2018-10-06T14:52:31.424Z,2.70
2018-10-06T14:55:01.893Z,2.67
2018-10-06T14:57:32.375Z,2.65
2018-10-06T15:00:02.903Z,2.58
2018-10-06T15:02:33.372Z,2.37
2018-10-06T15:05:04.293Z,2.70
2018-10-06T15:07:34.938Z,2.83
2018-10-06T15:10:05.584Z,2.12
2018-10-06T15:12:36.067Z,2.80
2018-10-06T15:15:06.710Z,2.70
2018-10-06T15:17:37.183Z,3.05
2018-10-06T15:20:07.830Z,2.72
2018-10-06T15:22:38.366Z,2.40
2018-10-06T15:25:09.051Z,2.62
2018-10-06T15:27:39.675Z,2.58
2018-10-06T15:30:10.190Z,2.72
2018-10-06T15:32:40.660Z,2.52
2018-10-06T15:35:11.125Z,2.90
2018-10-06T15:37:41.600Z,3.05
2018-10-06T15:40:12.106Z,3.12
2018-10-06T15:42:42.757Z,3.10
2018-10-06T15:45:13.223Z,2.87
2018-10-06T15:47:43.648Z,2.87
2018-10-06T15:50:14.125Z,3.05
2018-10-06T15:52:44.546Z,3.22
2018-10-06T15:55:15.018Z,2.85
2018-10-06T15:57:45.413Z,3.17
2018-10-06T16:00:15.847Z,3.22
2018-10-06T16:02:46.455Z,3.02
2018-10-06T16:05:16.987Z,3.08
2018-10-06T16:07:47.452Z,2.83
2018-10-06T16:10:18.014Z,3.05
2018-10-06T16:12:48.500Z,3.77
2018-10-06T16:15:18.947Z,2.87
2018-10-06T16:17:49.380Z,3.45
2018-10-06T16:20:19.962Z,3.00
2018-10-06T16:22:50.435Z,3.50
2018-10-06T16:25:20.963Z,3.20
2018-10-06T16:27:51.434Z,3.20
2018-10-06T16:30:21.973Z,3.67
2018-10-06T16:32:52.508Z,3.50
2018-10-06T16:35:23.070Z,2.87
2018-10-06T16:37:53.565Z,2.77
2018-10-06T16:40:24.112Z,2.77
2018-10-06T16:42:54.572Z,2.60
2018-10-06T16:45:25.106Z,2.70
2018-10-06T16:47:55.593Z,2.70
2018-10-06T16:50:26.061Z,2.70
2018-10-06T16:52:56.563Z,3.02
2018-10-06T16:55:27.132Z,2.83
2018-10-06T16:57:57.565Z,2.60
2018-10-06T17:00:28.143Z,2.70
2018-10-06T17:02:58.525Z,2.98
2018-10-06T17:05:29.044Z,2.75
2018-10-06T17:07:59.546Z,2.92
2018-10-06T17:10:30.095Z,3.47
2018-10-06T17:13:00.636Z,2.98
2018-10-06T17:15:31.128Z,3.17
2018-10-06T17:18:01.581Z,4.40
2018-10-06T17:20:32.072Z,4.03
2018-10-06T17:23:03.413Z,4.03
2018-10-06T17:25:33.903Z,4.12
2018-10-06T17:28:04.398Z,4.25
2018-10-06T17:30:34.939Z,3.77
2018-10-06T17:33:05.419Z,3.67
2018-10-06T17:35:36.085Z,3.80
2018-10-06T17:38:06.664Z,3.70
2018-10-06T17:40:37.747Z,4.20
2018-10-06T17:43:08.625Z,3.85
2018-10-06T17:45:39.527Z,3.72
2018-10-06T17:48:10.168Z,4.05
2018-10-06T17:50:44.911Z,4.30
2018-10-06T17:53:15.326Z,4.13
2018-10-06T17:55:45.859Z,4.30
2018-10-06T17:58:16.311Z,4.37
2018-10-06T18:00:53.332Z,4.17
2018-10-06T18:03:25.253Z,4.27
2018-10-06T18:06:08.257Z,4.45
2018-10-06T18:08:40.127Z,4.47
2018-10-06T18:11:11.315Z,4.13
2018-10-06T18:13:41.837Z,4.63
2018-10-06T18:16:12.299Z,4.63
2018-10-06T18:18:42.754Z,4.20
2018-10-06T18:21:13.255Z,4.27
2018-10-06T18:23:43.716Z,4.80
2018-10-06T18:26:14.341Z,4.13
2018-10-06T18:28:45.575Z,4.80
2018-10-06T18:31:16.161Z,4.50
2018-10-06T18:33:46.537Z,4.57
2018-10-06T18:36:17.182Z,5.07
2018-10-06T18:42:04.091Z,5.03
2018-10-06T18:44:34.503Z,4.40
2018-10-06T18:47:08.647Z,5.23
2018-10-06T18:49:39.098Z,4.87
2018-10-06T18:52:09.569Z,5.47
2018-10-06T18:54:40.238Z,5.23
2018-10-06T18:57:10.987Z,5.30
2018-10-06T18:59:54.198Z,5.17
2018-10-06T19:02:45.808Z,5.40
2018-10-06T19:05:17.301Z,5.17
2018-10-06T19:07:47.772Z,5.73
2018-10-06T19:10:18.582Z,5.43
2018-10-06T19:12:48.911Z,5.37
2018-10-06T19:15:19.381Z,5.73
2018-10-06T19:17:50.739Z,5.70
2018-10-06T19:20:21.985Z,5.37
2018-10-06T19:22:52.587Z,5.80
2018-10-06T19:25:23.208Z,5.63
2018-10-06T19:27:53.709Z,6.07
2018-10-06T19:30:24.130Z,6.03
2018-10-06T19:32:54.854Z,6.10
2018-10-06T19:35:25.370Z,5.70
2018-10-06T19:37:55.856Z,6.17
2018-10-06T19:40:26.317Z,6.73
2018-10-06T19:42:57.577Z,5.73
2018-10-06T19:45:28.077Z,5.43
2018-10-06T19:47:58.590Z,5.37
2018-10-06T19:50:29.257Z,5.93
2018-10-06T19:52:59.786Z,5.97
2018-10-06T19:55:30.444Z,6.33
2018-10-06T19:58:00.888Z,6.40
2018-10-06T20:00:31.482Z,6.77
2018-10-06T20:03:02.256Z,6.87
2018-10-06T20:05:32.786Z,7.33
2018-10-06T20:08:03.501Z,7.23
2018-10-06T20:10:33.927Z,6.73
2018-10-06T20:13:04.632Z,6.97
2018-10-06T20:15:35.166Z,7.70
2018-10-06T20:18:05.732Z,7.23
2018-10-06T20:20:36.212Z,7.93
2018-10-06T20:23:06.748Z,7.60
2018-10-06T20:25:37.309Z,8.60
2018-10-06T20:28:08.232Z,7.90
2018-10-06T20:30:38.726Z,7.70
2018-10-06T20:33:09.636Z,7.47
2018-10-06T20:35:42.155Z,7.43
2018-10-06T20:38:12.741Z,7.80
2018-10-06T20:40:43.389Z,7.90
2018-10-06T20:43:14.490Z,8.33
2018-10-06T20:45:45.152Z,8.50
2018-10-06T20:48:15.884Z,7.70
2018-10-06T20:50:46.471Z,8.63
2018-10-06T20:53:17.030Z,8.00
2018-10-06T20:55:47.467Z,8.90
2018-10-06T20:58:18.269Z,8.30
2018-10-06T21:00:48.792Z,8.30
2018-10-06T21:03:19.169Z,8.67
2018-10-06T21:05:49.597Z,8.70
2018-10-06T21:08:20.076Z,9.10
2018-10-06T21:10:50.825Z,9.03
2018-10-06T21:13:21.368Z,9.07
2018-10-06T21:15:51.980Z,10.13
2018-10-06T21:18:22.576Z,9.67
2018-10-06T21:20:53.017Z,10.00
2018-10-06T21:23:23.535Z,10.13
2018-10-06T21:25:53.983Z,9.57
2018-10-06T21:28:24.668Z,10.93
2018-10-06T21:30:55.152Z,9.75
2018-10-06T21:33:25.705Z,11.33
2018-10-06T21:35:56.081Z,10.43
2018-10-06T21:38:26.642Z,10.37
2018-10-06T21:40:57.073Z,9.97
2018-10-06T21:43:27.598Z,10.70
2018-10-06T21:45:57.980Z,10.67
2018-10-06T21:48:28.501Z,11.07
2018-10-06T21:50:58.958Z,11.23
2018-10-06T21:53:29.779Z,12.23
2018-10-06T21:56:00.280Z,14.87
2018-10-06T21:58:30.840Z,15.93
2018-10-06T22:01:12.360Z,16.00
2018-10-06T22:03:44.260Z,17.07
2018-10-06T22:06:14.643Z,18.43
2018-10-06T22:08:45.439Z,18.70
2018-10-06T22:11:16.313Z,17.50
2018-10-06T22:13:47.293Z,18.37
2018-10-06T22:16:17.741Z,19.23
2018-10-06T22:18:48.364Z,20.63
2018-10-06T22:21:18.811Z,25.13
2018-10-06T22:23:49.302Z,26.30
2018-10-06T22:26:19.672Z,27.00
2018-10-06T22:28:50.118Z,27.50
2018-10-06T22:31:20.611Z,26.17
2018-10-06T22:33:51.175Z,27.90
2018-10-06T22:36:21.626Z,26.17
2018-10-06T22:38:52.167Z,27.53
2018-10-06T22:41:25.430Z,27.17
2018-10-06T22:43:55.997Z,26.33
2018-10-06T22:46:26.451Z,27.83
2018-10-06T22:48:57.355Z,29.02
2018-10-06T22:51:27.795Z,29.33
2018-10-06T22:53:58.314Z,27.83
2018-10-06T22:56:28.757Z,28.60
2018-10-06T22:58:59.260Z,28.17
2018-10-06T23:01:29.641Z,28.13
2018-10-06T23:04:00.082Z,26.97
2018-10-06T23:06:30.547Z,28.10
2018-10-06T23:09:01.136Z,28.17
2018-10-06T23:11:31.547Z,28.23
2018-10-06T23:14:02.062Z,28.07
2018-10-06T23:16:32.462Z,29.17
2018-10-06T23:19:02.913Z,32.80
2018-10-06T23:21:33.386Z,32.43
2018-10-06T23:24:03.871Z,33.43
2018-10-06T23:26:34.314Z,33.20
2018-10-06T23:29:04.774Z,36.63
2018-10-06T23:31:35.190Z,33.13
2018-10-06T23:34:05.650Z,36.07
2018-10-06T23:36:36.109Z,38.33
2018-10-06T23:39:07.852Z,36.93
2018-10-06T23:41:38.254Z,35.20
2018-10-06T23:44:09.115Z,34.30
2018-10-06T23:46:39.619Z,35.73
2018-10-06T23:49:10.177Z,35.73
2018-10-06T23:51:40.610Z,36.87
2018-10-06T23:54:11.202Z,35.70
2018-10-06T23:56:41.621Z,35.97
2018-10-06T23:59:12.466Z,37.90
